Jackson Hole Airport Jackson US
ICAO: KJAC
IATA: JAC
Category: Medium
Scheduled Services: Yes

Elevation: 6451 ft
TransAlt. 18000 ft.

Airport Communications:
ATIS:120.625
AWOS 3:135.175
SALT LAKE CNTR:133.25
CTAF:118.075
GND:124.55
CASPER RDO:122.05
TWR:118.075
UNICOM:122.95

KJAC Zoom In..

If you have problems with the map follow the link
https://www.worldairports.se/pages/airport.php?
ICAO=KJAC

Runways:

(A) RW 01 length 6300 ft width 150 ft
---- / hdg 7

(B) RW 19 length 6300 ft width 150 ft
ILS 109.10 / hdg 187

Location; KJAC
Day. 20 / Time. 21.13 Zulu
* Altimeter: 29.56
* Temperature: -09° c. -15.8°f.
* Wind from: 130° Speed 03 kn.
Dewpoint: -16° c.
Visibility: 3 Statute Miles.
Clouds: Overcast 2600 ft.
Conditions: Light Snow.

KJAC 202113Z 13003KT 3SM -SN OVC026 M09/M16 A2956 RMK AO2 P0000


Wind From 130°
Speed 03 kn.

 
 
jpsmedia.com for Web Design worldairports.se 2019   terms of use